Create Tblcommutelog Verified Points Advance Search
| # | Trip ID | Id Commuter | Trip Date | Trip Num | Current Lat | Current Lng | Delta Distance | Current Time | Activity | Activity Confidence | Current Speed | |
|---|---|---|---|---|---|---|---|---|---|---|---|---|
| 68901 | 250528_779990_16500693_0829 | 779990 | (not set) | (not set) | 38.840200661612 | -77.084007359913 | 1.4836 | 2025-05-28 12:45:46.256 | in_vehicle | 100 | 4.2826361011024 | |
| 68902 | 250528_784608_16458763_0820 | 784608 | (not set) | (not set) | 38.885390574308 | -77.020550430058 | 10.8734 | 2025-05-28 12:45:46.263 | in_vehicle | 100 | 0.48727279229662 | |
| 68903 | 250528_783145_6419315_0809 | 783145 | (not set) | (not set) | 39.126293183333 | -77.102966316667 | 19.8191 | 2025-05-28 12:45:46.427 | in_vehicle | 100 | 13.777749962002 | |
| 68904 | 250528_780789_16421763_0723 | 780789 | (not set) | (not set) | 38.900339504772 | -77.044366604019 | 43.4497 | 2025-05-28 12:45:47.297 | unknown | 100 | 0.39786494049907 | |
| 68905 | 250528_753795_16499475_0812 | 753795 | (not set) | (not set) | 38.932179813363 | -76.994393132385 | 8.3991 | 2025-05-28 12:45:48.009 | in_vehicle | 100 | 4.515096515776 | |
| 68906 | 250528_770164_16511074_0757 | 770164 | (not set) | (not set) | 38.890575661359 | -77.164837492052 | 7.2624 | 2025-05-28 12:45:48.223 | in_vehicle | 100 | 10.706590252756 | |
| 68907 | 250528_781975_16497756_0742 | 781975 | (not set) | (not set) | 38.896289027034 | -77.016887218191 | 28.1939 | 2025-05-28 12:45:49.103 | in_vehicle | 100 | -0.44703925898772 | |
| 68908 | 250528_727233_6428227_0818 | 727233 | (not set) | (not set) | 39.105431580766 | -76.932667571606 | 11.2256 | 2025-05-28 12:45:49.247 | in_vehicle | 100 | 8.5965649503339 | |
| 68909 | 250528_784054_16462190_0838 | 784054 | (not set) | (not set) | 38.9351738 | -77.2474258 | 5.7011 | 2025-05-28 12:45:49.362 | in_vehicle | 100 | 6.3926614035245 | |
| 68910 | 250528_781766_16459526_0813 | 781766 | (not set) | (not set) | 38.8638214 | -77.3359677 | 23.4566 | 2025-05-28 12:45:49.482 | in_vehicle | 100 | 11.497849741164 | |
| 68911 | 250528_783548_6438355_0833 | 783548 | (not set) | (not set) | 38.941110305358 | -77.032775598416 | 2.1091 | 2025-05-28 12:45:50.289 | in_vehicle | 100 | 3.1516267758635 | |
| 68912 | 250528_781766_16459526_0813 | 781766 | (not set) | (not set) | 38.8638776 | -77.3356778 | 23.4727 | 2025-05-28 12:45:50.379 | in_vehicle | 100 | 11.6587838744 | |
| 68913 | 250528_784626_16513328_0836 | 784626 | (not set) | (not set) | 38.88473494698 | -77.020143921958 | 0 | 2025-05-28 12:45:50.439 | on_foot | 100 | -0.44703925898772 | |
| 68914 | 250528_780813_16421763_0730 | 780813 | (not set) | (not set) | 38.885074864319 | -77.063013437256 | 18.6889 | 2025-05-28 12:45:50.687 | in_vehicle | 100 | -0.44703925898772 | |
| 68915 | 250528_780745_16421763_0750 | 780745 | (not set) | (not set) | 38.946910030537 | -77.314247100668 | 22.1985 | 2025-05-28 12:45:53.192 | in_vehicle | 100 | 9.9645050828364 | |
| 68916 | 250528_782033_16456978_0842 | 782033 | (not set) | (not set) | 39.1495321 | -77.0578956 | 1.4168 | 2025-05-28 12:45:55.187 | still | 100 | 7.9215356692625 | |
| 68917 | 250528_753795_16499475_0812 | 753795 | (not set) | (not set) | 38.930708810243 | -76.994153575384 | 8.5013 | 2025-05-28 12:45:55.871 | in_vehicle | 100 | 7.0989834327251 | |
| 68918 | 250528_769309_6461772_0826 | 769309 | (not set) | (not set) | 38.947098983251 | -77.313589985291 | 7.7425 | 2025-05-28 12:45:56.198 | in_vehicle | 100 | 9.9466235124769 | |
| 68919 | 250528_777375_16513753_0741 | 777375 | (not set) | (not set) | 39.028898843205 | -76.755864935492 | 10.7579 | 2025-05-28 12:45:56.281 | unknown | 100 | 12.570743962735 | |
| 68920 | 250528_753953_16495306_0836 | 753953 | (not set) | (not set) | 38.853046903423 | -77.120066005808 | 0.9725 | 2025-05-28 12:45:56.609 | in_vehicle | 100 | 0 |